Flight Track Log - Related Links

Times and Time Zones

All times are in EDT time to prevent confusion due to time zone crossing. See the N54381 flight status page for this flight to view local times or setup timezone preferences in your user account.

Time Position Orientation Groundspeed Altitude Reporting Facility
EDT Latitude Longitude Course Direction KTS MPH feet Rate Location/Type
Sun 02:03:30 PM 26.5092 -80.9417 339° North 106 122 3,600  Level Miami Center
Sun 02:04:32 PM 26.5372 -80.9508 344° North 108 124 3,600 -48 Level Miami Center
Sun 02:05:34 PM 26.5675 -80.9650 337° Northwest 113 130 3,500 -48 Descending Miami Center
Sun 02:06:36 PM 26.6008 -80.9736 347° North 114 131 3,500 -48 Level Miami Center
Sun 02:07:38 PM 26.6325 -80.9717 North 111 128 3,400 -48 Descending Miami Center
Sun 02:08:00 PM 25.9549 -80.3402 339° North  Level FlightAware Approximate
Sun 02:08:40 PM 26.6608 -80.9603 20° North 105 121 3,400  Level Miami Center
Sun 02:09:42 PM 26.6906 -80.9486 19° North 105 121 3,500 48 Climbing Miami Center
Sun 02:10:44 PM 26.7211 -80.9358 20° North 110 127 3,500  Level Miami Center
Sun 02:11:46 PM 26.7494 -80.9219 24° Northeast 113 130 3,500  Level Miami Center
Sun 02:12:48 PM 26.7817 -80.9139 13° North 113 130 3,500 -48 Level Miami Center
Sun 02:13:50 PM 26.8147 -80.9064 11° North 114 131 3,400  Descending Miami Center
Sun 02:14:52 PM 26.8456 -80.8986 13° North 111 128 3,500 48 Climbing Miami Center
Sun 02:15:54 PM 26.8778 -80.8958 North 110 127 3,500 48 Level Miami Center
Sun 02:16:56 PM 26.9100 -80.8961 360° North 110 127 3,600  Climbing Miami Center
Sun 02:17:59 PM 26.9425 -80.8947 North 111 128 3,500 -48 Descending Miami Center
Sun 02:19:01 PM 26.9719 -80.8894 North 110 127 3,500  Level Miami Center
Sun 02:20:03 PM 27.0039 -80.8817 12° North 111 128 3,500 48 Level Miami Center
Sun 02:21:05 PM 27.0358 -80.8786 North 111 128 3,600  Climbing Miami Center
Sun 02:22:07 PM 27.0669 -80.8750 North 109 125 3,500 -48 Descending Miami Center
Sun 02:23:10 PM 27.0992 -80.8703 North 109 125 3,500  Level Miami Center
Sun 02:24:12 PM 27.1308 -80.8681 North 109 125 3,500  Level Miami Center
Sun 02:25:14 PM 27.1617 -80.8650 North 108 124 3,500  Level Miami Center

Login

Don't have an account? Register now (free) for customized features, flight alerts, and more!